Time;durP1;ratioP1;P1;durP2;ratioP2;P2;SDS_P1;SDS_P2;PMS_P1;PMS_P2;Temp;Humidity;BMP_temperature;BMP_pressure;BME280_temperature;BME280_humidity;BME280_pressure;Samples;Min_cycle;Max_cycle;Signal;HPM_P1;HPM_P2
2022/03/19 00:01:10;;;;;;;16.52;11.23;;;;;;;;;;5096822;28;20318;-65
2022/03/19 00:03:37;;;;;;;20.45;13.70;;;;;;;;;;5096978;28;20284;-65
2022/03/19 00:06:04;;;;;;;14.05;10.82;;;;;;;;;;5096766;28;20229;-65
2022/03/19 00:08:33;;;;;;;19.75;12.10;;;;;;;;;;5096544;28;20669;-65
2022/03/19 00:11:00;;;;;;;22.98;12.65;;;;;;;;;;5096518;28;20196;-65
2022/03/19 00:13:27;;;;;;;18.13;11.70;;;;;;;;;;5096416;28;20290;-65
2022/03/19 00:15:54;;;;;;;18.60;12.98;;;;;;;;;;5096306;28;20201;-65
2022/03/19 00:18:22;;;;;;;17.30;12.00;;;;;;;;;;5096726;28;20206;-65
2022/03/19 00:20:49;;;;;;;14.48;10.55;;;;;;;;;;5096932;28;20204;-65
2022/03/19 00:23:17;;;;;;;13.63;12.10;;;;;;;;;;5096164;28;20220;-65
2022/03/19 00:25:45;;;;;;;17.20;11.30;;;;;;;;;;5096370;28;20286;-65
2022/03/19 00:28:12;;;;;;;13.93;11.40;;;;;;;;;;5096148;28;20195;-65
2022/03/19 00:30:40;;;;;;;18.30;11.27;;;;;;;;;;5096267;28;20228;-65
2022/03/19 00:33:07;;;;;;;16.73;11.63;;;;;;;;;;5096314;28;20286;-65
2022/03/19 00:35:34;;;;;;;19.67;12.35;;;;;;;;;;5096543;28;20212;-65
2022/03/19 00:38:04;;;;;;;14.57;11.93;;;;;;;;;;5096231;28;20201;-65
2022/03/19 00:40:31;;;;;;;28.40;19.67;;;;;;;;;;5096409;28;20218;-65
2022/03/19 00:43:00;;;;;;;18.73;13.82;;;;;;;;;;5095780;28;20219;-65
2022/03/19 00:45:28;;;;;;;17.67;12.18;;;;;;;;;;5096010;28;20301;-65
2022/03/19 00:47:56;;;;;;;16.92;13.25;;;;;;;;;;5096053;28;20704;-65
2022/03/19 00:50:23;;;;;;;19.85;13.60;;;;;;;;;;5095650;28;20224;-65
2022/03/19 00:52:50;;;;;;;14.75;11.30;;;;;;;;;;5095929;28;20293;-65
2022/03/19 00:55:17;;;;;;;21.52;13.30;;;;;;;;;;5095527;28;20658;-65
2022/03/19 00:57:45;;;;;;;17.75;12.80;;;;;;;;;;5095854;28;20226;-65
2022/03/19 01:00:15;;;;;;;17.20;12.75;;;;;;;;;;5095301;28;20195;-65
2022/03/19 01:02:43;;;;;;;17.50;11.82;;;;;;;;;;5095833;28;20325;-65
2022/03/19 01:05:11;;;;;;;14.52;12.05;;;;;;;;;;5095284;28;20210;-65
2022/03/19 01:07:42;;;;;;;14.38;12.25;;;;;;;;;;5095661;28;20194;-65
2022/03/19 01:10:10;;;;;;;18.98;12.18;;;;;;;;;;5095184;28;20286;-65
2022/03/19 01:12:37;;;;;;;26.13;13.80;;;;;;;;;;5095260;28;20205;-65
2022/03/19 01:15:04;;;;;;;14.77;11.73;;;;;;;;;;5095104;28;20201;-65
2022/03/19 01:17:33;;;;;;;16.88;13.00;;;;;;;;;;5096049;28;20552;-65
2022/03/19 01:20:02;;;;;;;18.52;13.85;;;;;;;;;;5095171;28;20192;-65
2022/03/19 01:22:29;;;;;;;17.25;12.27;;;;;;;;;;5095177;28;20281;-65
2022/03/19 01:24:57;;;;;;;12.60;11.18;;;;;;;;;;5095005;28;20644;-65
2022/03/19 01:27:24;;;;;;;13.73;11.50;;;;;;;;;;5094941;28;20290;-65
2022/03/19 01:29:52;;;;;;;16.40;11.68;;;;;;;;;;5094936;28;20199;-65
2022/03/19 01:32:19;;;;;;;13.50;11.45;;;;;;;;;;5095073;28;20296;-65
2022/03/19 01:34:47;;;;;;;16.10;11.80;;;;;;;;;;5094817;28;20226;-65
2022/03/19 01:37:15;;;;;;;16.85;12.30;;;;;;;;;;5095145;28;20195;-66
2022/03/19 01:39:42;;;;;;;15.23;12.35;;;;;;;;;;5094735;28;20203;-65
2022/03/19 01:42:09;;;;;;;17.40;12.02;;;;;;;;;;5094587;28;20225;-65
2022/03/19 01:44:36;;;;;;;18.63;11.35;;;;;;;;;;5094958;28;20224;-65
2022/03/19 01:47:06;;;;;;;15.65;10.65;;;;;;;;;;5095010;28;20213;-65
2022/03/19 01:49:34;;;;;;;14.02;10.90;;;;;;;;;;5094775;28;20311;-65
2022/03/19 01:52:02;;;;;;;11.20;9.77;;;;;;;;;;5094624;28;20265;-65
2022/03/19 01:54:31;;;;;;;15.27;11.43;;;;;;;;;;5094728;28;20205;-65
2022/03/19 01:56:59;;;;;;;18.00;10.35;;;;;;;;;;5094788;28;20560;-65
2022/03/19 01:59:28;;;;;;;14.75;11.40;;;;;;;;;;5094369;28;20194;-65
2022/03/19 02:01:55;;;;;;;15.18;11.10;;;;;;;;;;5094704;28;20225;-65
2022/03/19 02:04:23;;;;;;;13.73;10.13;;;;;;;;;;5094656;28;20199;-65
2022/03/19 02:06:51;;;;;;;13.63;11.35;;;;;;;;;;5094135;28;20668;-65
2022/03/19 02:09:20;;;;;;;16.30;10.82;;;;;;;;;;5094201;28;20198;-65
2022/03/19 02:11:47;;;;;;;12.30;10.18;;;;;;;;;;5093677;28;20282;-65
2022/03/19 02:14:15;;;;;;;17.85;11.85;;;;;;;;;;5094756;28;20199;-65
2022/03/19 02:16:42;;;;;;;17.08;10.35;;;;;;;;;;5094643;28;20203;-65
2022/03/19 02:19:10;;;;;;;18.33;13.13;;;;;;;;;;5094247;28;20201;-65
2022/03/19 02:21:41;;;;;;;11.98;10.55;;;;;;;;;;5094111;28;20199;-65
2022/03/19 02:26:55;;;;;;;19.35;11.95;;;;;;;;;;5094115;28;20666;-65
2022/03/19 02:29:22;;;;;;;13.57;9.82;;;;;;;;;;5093843;28;20720;-65
2022/03/19 02:31:50;;;;;;;17.33;11.75;;;;;;;;;;5094152;28;20200;-65
2022/03/19 02:34:17;;;;;;;13.93;10.30;;;;;;;;;;5094121;28;20199;-65
2022/03/19 02:36:45;;;;;;;18.40;11.63;;;;;;;;;;5093631;28;20212;-65
2022/03/19 02:39:16;;;;;;;20.13;11.25;;;;;;;;;;5093638;28;20203;-66
2022/03/19 02:41:43;;;;;;;15.15;10.07;;;;;;;;;;5093846;28;20188;-65
2022/03/19 02:44:11;;;;;;;15.07;10.38;;;;;;;;;;5093869;28;20227;-65
2022/03/19 02:46:39;;;;;;;15.45;9.35;;;;;;;;;;5094062;28;20191;-65
2022/03/19 02:49:07;;;;;;;17.00;10.85;;;;;;;;;;5093518;28;20245;-65
2022/03/19 02:51:35;;;;;;;16.65;9.90;;;;;;;;;;5093428;28;20645;-65
2022/03/19 02:54:04;;;;;;;14.05;9.95;;;;;;;;;;5093486;28;20203;-65
2022/03/19 02:56:33;;;;;;;14.98;10.55;;;;;;;;;;5093641;28;20202;-65
2022/03/19 02:59:05;;;;;;;15.15;10.75;;;;;;;;;;5093396;28;20203;-65
2022/03/19 03:01:32;;;;;;;13.68;10.02;;;;;;;;;;5093777;28;20523;-65
2022/03/19 03:04:00;;;;;;;13.93;10.70;;;;;;;;;;5093338;28;20624;-65
2022/03/19 03:06:28;;;;;;;16.30;11.25;;;;;;;;;;5093672;28;20196;-65
2022/03/19 03:08:55;;;;;;;15.63;10.35;;;;;;;;;;5093946;28;20288;-65
2022/03/19 03:11:22;;;;;;;13.95;10.85;;;;;;;;;;5093278;28;20241;-65
2022/03/19 03:13:51;;;;;;;18.75;10.55;;;;;;;;;;5093532;28;20218;-65
2022/03/19 03:16:18;;;;;;;13.85;10.80;;;;;;;;;;5093553;28;20195;-65
2022/03/19 03:18:45;;;;;;;19.27;11.05;;;;;;;;;;5093123;28;20201;-65
2022/03/19 03:21:12;;;;;;;13.70;9.85;;;;;;;;;;5093150;28;20285;-65
2022/03/19 03:23:40;;;;;;;16.05;10.75;;;;;;;;;;5094417;28;20306;-65
2022/03/19 03:26:07;;;;;;;12.43;10.60;;;;;;;;;;5098023;28;20200;-65
2022/03/19 03:28:34;;;;;;;14.43;9.80;;;;;;;;;;5097196;28;20677;-65
2022/03/19 03:31:03;;;;;;;17.08;9.27;;;;;;;;;;5097888;28;20247;-65
2022/03/19 03:33:30;;;;;;;14.00;9.68;;;;;;;;;;5097109;28;20206;-65
2022/03/19 03:35:57;;;;;;;11.02;9.25;;;;;;;;;;5097530;28;20207;-65
2022/03/19 03:38:24;;;;;;;19.13;9.02;;;;;;;;;;5097082;28;20199;-65
2022/03/19 03:40:52;;;;;;;17.45;9.05;;;;;;;;;;5097356;28;20205;-65
2022/03/19 03:43:19;;;;;;;13.95;9.00;;;;;;;;;;5097501;28;20214;-65
2022/03/19 03:45:47;;;;;;;15.88;9.35;;;;;;;;;;5096941;28;20737;-65
2022/03/19 03:48:15;;;;;;;10.82;8.02;;;;;;;;;;5096816;28;20260;-65
2022/03/19 03:50:43;;;;;;;14.15;9.80;;;;;;;;;;5096627;28;20318;-65
2022/03/19 03:53:10;;;;;;;15.13;10.02;;;;;;;;;;5096766;28;20208;-65
2022/03/19 03:55:39;;;;;;;14.95;9.25;;;;;;;;;;5096847;28;20282;-65
2022/03/19 03:58:08;;;;;;;15.15;8.38;;;;;;;;;;5097176;28;20201;-65
2022/03/19 04:00:35;;;;;;;11.77;9.27;;;;;;;;;;5096700;28;20289;-65
2022/03/19 04:03:03;;;;;;;14.77;8.93;;;;;;;;;;5097123;28;20577;-65
2022/03/19 04:05:33;;;;;;;10.13;7.78;;;;;;;;;;5097258;28;20286;-65
2022/03/19 04:08:01;;;;;;;11.80;7.80;;;;;;;;;;5096454;28;20746;-65
2022/03/19 04:10:28;;;;;;;11.57;8.05;;;;;;;;;;5096551;28;20662;-65
2022/03/19 04:12:55;;;;;;;23.08;7.57;;;;;;;;;;5096835;28;20202;-65
2022/03/19 04:15:22;;;;;;;12.25;7.45;;;;;;;;;;5096636;28;20197;-65
2022/03/19 04:17:50;;;;;;;13.60;8.45;;;;;;;;;;5096298;28;20380;-65
2022/03/19 04:20:17;;;;;;;12.38;7.63;;;;;;;;;;5096654;28;20201;-65
2022/03/19 04:22:47;;;;;;;11.88;7.20;;;;;;;;;;5096506;28;20215;-65
2022/03/19 04:25:15;;;;;;;13.93;7.25;;;;;;;;;;5096190;28;20204;-65
2022/03/19 04:27:42;;;;;;;12.45;6.38;;;;;;;;;;5096388;28;20226;-65
2022/03/19 04:30:12;;;;;;;11.02;7.10;;;;;;;;;;5096498;28;20725;-65
2022/03/19 04:32:42;;;;;;;15.63;8.45;;;;;;;;;;5096151;28;20209;-65
2022/03/19 04:37:52;;;;;;;9.90;6.60;;;;;;;;;;5095822;28;20176;-65
2022/03/19 04:40:19;;;;;;;12.35;7.15;;;;;;;;;;5096146;28;20560;-65
2022/03/19 04:42:47;;;;;;;8.40;6.28;;;;;;;;;;5096079;28;20222;-65
2022/03/19 04:45:14;;;;;;;8.40;6.95;;;;;;;;;;5095796;28;20206;-65
2022/03/19 04:47:41;;;;;;;10.90;6.07;;;;;;;;;;5096009;28;20290;-65
2022/03/19 04:50:09;;;;;;;11.80;6.25;;;;;;;;;;5095545;28;20315;-65
2022/03/19 04:52:36;;;;;;;14.60;6.13;;;;;;;;;;5096013;28;20197;-65
2022/03/19 04:55:05;;;;;;;11.15;6.70;;;;;;;;;;5095936;28;20207;-65
2022/03/19 04:57:32;;;;;;;13.13;6.13;;;;;;;;;;5095906;28;20561;-65
2022/03/19 05:00:00;;;;;;;11.65;6.25;;;;;;;;;;5095591;28;20203;-66
2022/03/19 05:02:27;;;;;;;10.70;6.22;;;;;;;;;;5095392;28;20659;-65
2022/03/19 05:04:55;;;;;;;12.65;6.30;;;;;;;;;;5094515;28;20652;-65
2022/03/19 05:07:23;;;;;;;9.02;7.55;;;;;;;;;;5095399;28;20204;-65
2022/03/19 05:12:38;;;;;;;13.70;7.55;;;;;;;;;;5095420;28;20183;-65
2022/03/19 05:15:06;;;;;;;13.77;6.35;;;;;;;;;;5093661;28;20195;-65
2022/03/19 05:17:34;;;;;;;12.75;6.43;;;;;;;;;;5094697;28;20198;-65
2022/03/19 05:20:01;;;;;;;17.60;7.18;;;;;;;;;;5095104;28;20198;-66
2022/03/19 05:22:30;;;;;;;14.10;6.15;;;;;;;;;;5095356;28;20650;-65
2022/03/19 05:24:57;;;;;;;13.80;7.50;;;;;;;;;;5094882;28;20198;-65
2022/03/19 05:27:24;;;;;;;15.80;6.40;;;;;;;;;;5095655;28;20245;-65
2022/03/19 05:29:53;;;;;;;18.05;8.55;;;;;;;;;;5095064;28;20234;-65
2022/03/19 05:32:21;;;;;;;18.75;6.53;;;;;;;;;;5095418;28;20528;-65
2022/03/19 05:34:49;;;;;;;9.35;6.70;;;;;;;;;;5094638;28;20197;-65
2022/03/19 05:37:17;;;;;;;12.38;6.30;;;;;;;;;;5094859;28;20222;-66
2022/03/19 05:39:45;;;;;;;13.30;6.90;;;;;;;;;;5094960;28;20223;-66
2022/03/19 05:42:12;;;;;;;14.13;8.00;;;;;;;;;;5094235;28;20208;-66
2022/03/19 05:44:40;;;;;;;12.07;6.90;;;;;;;;;;5094869;28;20226;-66
2022/03/19 05:47:08;;;;;;;10.75;6.80;;;;;;;;;;5094656;28;20563;-66
2022/03/19 05:49:36;;;;;;;14.55;8.00;;;;;;;;;;5094198;28;20218;-66
2022/03/19 05:52:03;;;;;;;11.40;7.03;;;;;;;;;;5095490;28;20283;-66
2022/03/19 05:54:31;;;;;;;16.98;7.60;;;;;;;;;;5094715;28;20544;-65
2022/03/19 05:56:58;;;;;;;14.35;7.65;;;;;;;;;;5094773;28;20198;-66
2022/03/19 05:59:25;;;;;;;18.10;8.40;;;;;;;;;;5094547;28;20200;-65
2022/03/19 06:01:52;;;;;;;18.38;8.73;;;;;;;;;;5094152;28;20208;-65
2022/03/19 06:04:21;;;;;;;15.65;8.48;;;;;;;;;;5093828;28;20218;-66
2022/03/19 06:06:48;;;;;;;16.80;9.05;;;;;;;;;;5094845;28;20287;-66
2022/03/19 06:09:15;;;;;;;15.95;9.40;;;;;;;;;;5094044;28;20205;-65
2022/03/19 06:11:44;;;;;;;12.82;8.40;;;;;;;;;;5094454;28;20287;-65
2022/03/19 06:14:11;;;;;;;18.13;7.43;;;;;;;;;;5094003;28;20208;-66
2022/03/19 06:16:38;;;;;;;14.20;7.70;;;;;;;;;;5094037;28;20230;-66
2022/03/19 06:19:05;;;;;;;14.77;8.02;;;;;;;;;;5093963;28;20196;-65
2022/03/19 06:21:34;;;;;;;16.55;9.15;;;;;;;;;;5093783;28;20666;-66
2022/03/19 06:24:03;;;;;;;13.52;8.43;;;;;;;;;;5093343;28;20214;-65
2022/03/19 06:26:30;;;;;;;11.77;8.00;;;;;;;;;;5093812;28;20294;-66
2022/03/19 06:28:57;;;;;;;15.60;9.13;;;;;;;;;;5093794;28;20207;-65
2022/03/19 06:31:25;;;;;;;15.90;8.95;;;;;;;;;;5093982;28;20292;-66
2022/03/19 06:33:52;;;;;;;18.17;9.40;;;;;;;;;;5094050;28;20198;-65
2022/03/19 06:39:06;;;;;;;14.32;8.95;;;;;;;;;;5093849;28;20182;-65
2022/03/19 06:41:33;;;;;;;16.25;7.68;;;;;;;;;;5093555;28;20229;-65
2022/03/19 06:44:01;;;;;;;18.30;8.73;;;;;;;;;;5093200;28;20226;-66
2022/03/19 06:46:28;;;;;;;9.30;7.85;;;;;;;;;;5093867;28;20220;-66
2022/03/19 06:48:56;;;;;;;20.38;9.35;;;;;;;;;;5093750;28;20605;-65
2022/03/19 06:51:23;;;;;;;16.30;9.32;;;;;;;;;;5093285;28;20318;-65
2022/03/19 06:53:51;;;;;;;16.50;8.45;;;;;;;;;;5093526;28;20303;-65
2022/03/19 06:56:19;;;;;;;16.40;8.88;;;;;;;;;;5093402;28;20656;-66
2022/03/19 06:58:46;;;;;;;18.55;9.70;;;;;;;;;;5093246;28;20202;-66
2022/03/19 07:01:16;;;;;;;19.10;8.82;;;;;;;;;;5093184;28;20294;-66
2022/03/19 07:03:44;;;;;;;12.98;8.32;;;;;;;;;;5093225;28;20657;-66
2022/03/19 07:06:11;;;;;;;18.42;8.85;;;;;;;;;;5093399;28;20199;-65
2022/03/19 07:08:39;;;;;;;17.33;8.13;;;;;;;;;;5093660;28;20201;-65
2022/03/19 07:11:06;;;;;;;19.83;7.80;;;;;;;;;;5093546;28;20196;-64
2022/03/19 07:13:35;;;;;;;14.43;7.53;;;;;;;;;;5093542;28;20256;-65
2022/03/19 07:16:02;;;;;;;15.57;8.25;;;;;;;;;;5093838;28;20243;-66
2022/03/19 07:18:29;;;;;;;25.10;8.30;;;;;;;;;;5093200;28;20194;-66
2022/03/19 07:20:56;;;;;;;13.60;7.95;;;;;;;;;;5092986;28;20592;-66
2022/03/19 07:23:24;;;;;;;7.63;6.53;;;;;;;;;;5092681;28;20195;-65
2022/03/19 07:25:51;;;;;;;12.68;7.88;;;;;;;;;;5093011;28;20682;-66
2022/03/19 07:28:18;;;;;;;14.73;8.40;;;;;;;;;;5093406;28;20547;-66
2022/03/19 07:30:48;;;;;;;12.88;7.97;;;;;;;;;;5093354;28;20199;-66
2022/03/19 07:33:15;;;;;;;11.70;7.10;;;;;;;;;;5093825;28;20231;-65
2022/03/19 07:35:43;;;;;;;15.25;8.40;;;;;;;;;;5092897;28;20196;-66
2022/03/19 07:38:11;;;;;;;19.48;9.27;;;;;;;;;;5093085;28;20556;-65
2022/03/19 07:43:23;;;;;;;15.10;8.00;;;;;;;;;;5093127;28;20186;-65
2022/03/19 07:45:52;;;;;;;16.15;6.95;;;;;;;;;;5092835;28;20295;-66
2022/03/19 07:48:20;;;;;;;12.57;7.15;;;;;;;;;;5092829;28;20649;-65
2022/03/19 07:50:48;;;;;;;11.57;6.40;;;;;;;;;;5093092;28;20243;-66
2022/03/19 07:53:15;;;;;;;14.82;6.60;;;;;;;;;;5093214;28;20573;-66
2022/03/19 07:55:42;;;;;;;8.82;6.28;;;;;;;;;;5093341;28;20286;-66
2022/03/19 07:58:10;;;;;;;12.20;5.55;;;;;;;;;;5093095;28;20198;-66
2022/03/19 08:00:38;;;;;;;15.43;5.88;;;;;;;;;;5093153;28;20195;-65
2022/03/19 08:03:07;;;;;;;10.65;5.70;;;;;;;;;;5093096;28;20214;-65
2022/03/19 08:05:34;;;;;;;17.88;7.95;;;;;;;;;;5092778;28;20759;-65
2022/03/19 08:08:05;;;;;;;12.60;6.72;;;;;;;;;;5092681;28;20202;-66
2022/03/19 08:10:33;;;;;;;13.75;6.00;;;;;;;;;;5094283;28;20595;-65
2022/03/19 08:13:03;;;;;;;15.85;6.43;;;;;;;;;;5096233;28;20207;-66
2022/03/19 08:15:31;;;;;;;11.75;5.57;;;;;;;;;;5096723;28;20227;-65
2022/03/19 08:17:58;;;;;;;7.55;6.10;;;;;;;;;;5096411;28;20237;-66
2022/03/19 08:20:27;;;;;;;11.85;5.60;;;;;;;;;;5097420;28;20638;-66
2022/03/19 08:22:54;;;;;;;9.85;5.25;;;;;;;;;;5096499;28;20195;-65
2022/03/19 08:25:21;;;;;;;9.95;5.68;;;;;;;;;;5096537;28;20226;-66
2022/03/19 08:27:50;;;;;;;13.43;5.55;;;;;;;;;;5096373;28;20299;-65
2022/03/19 08:30:17;;;;;;;13.18;5.30;;;;;;;;;;5096270;28;20196;-69
2022/03/19 08:32:45;;;;;;;14.23;7.03;;;;;;;;;;5095868;28;20547;-67
2022/03/19 08:35:12;;;;;;;12.15;5.15;;;;;;;;;;5096876;28;20202;-67
2022/03/19 08:37:40;;;;;;;11.25;5.13;;;;;;;;;;5095798;28;20201;-67
2022/03/19 08:40:16;;;;;;;9.95;5.13;;;;;;;;;;5095770;28;20228;-67
2022/03/19 08:42:44;;;;;;;9.60;5.50;;;;;;;;;;5095741;28;20191;-66
2022/03/19 08:45:12;;;;;;;17.45;5.15;;;;;;;;;;5095911;28;20222;-68
2022/03/19 08:47:39;;;;;;;11.00;4.50;;;;;;;;;;5096011;28;20203;-68
2022/03/19 08:50:07;;;;;;;11.13;5.60;;;;;;;;;;5095985;28;20565;-69
2022/03/19 08:52:34;;;;;;;9.80;4.65;;;;;;;;;;5095287;28;20197;-69
2022/03/19 08:55:03;;;;;;;12.73;4.50;;;;;;;;;;5095764;28;20235;-69
2022/03/19 08:57:30;;;;;;;8.50;4.32;;;;;;;;;;5095126;28;20193;-69
2022/03/19 08:59:57;;;;;;;11.90;4.63;;;;;;;;;;5095622;28;20196;-69
2022/03/19 09:02:25;;;;;;;10.88;4.45;;;;;;;;;;5095881;28;20196;-69
2022/03/19 09:04:52;;;;;;;9.95;5.07;;;;;;;;;;5095520;28;20219;-69
2022/03/19 09:07:19;;;;;;;9.35;4.20;;;;;;;;;;5095172;28;20732;-69
2022/03/19 09:09:52;;;;;;;11.93;6.20;;;;;;;;;;5095893;28;20290;-69
2022/03/19 09:12:21;;;;;;;8.60;5.35;;;;;;;;;;5095817;28;20189;-69
2022/03/19 09:14:48;;;;;;;9.15;4.60;;;;;;;;;;5095072;28;20287;-69
2022/03/19 09:17:15;;;;;;;10.20;4.68;;;;;;;;;;5094512;28;20200;-69
2022/03/19 09:19:44;;;;;;;7.70;4.28;;;;;;;;;;5095153;28;20203;-69
2022/03/19 09:22:11;;;;;;;9.50;4.68;;;;;;;;;;5094552;28;20197;-69
2022/03/19 09:24:39;;;;;;;10.43;3.88;;;;;;;;;;5095580;28;20654;-69
2022/03/19 09:27:06;;;;;;;11.20;4.18;;;;;;;;;;5095712;28;20617;-69
2022/03/19 09:29:35;;;;;;;7.90;3.92;;;;;;;;;;5095178;28;20197;-69
2022/03/19 09:32:02;;;;;;;7.32;4.28;;;;;;;;;;5094861;28;20557;-70
2022/03/19 09:34:30;;;;;;;13.48;5.57;;;;;;;;;;5095124;28;20208;-69
2022/03/19 09:36:57;;;;;;;7.00;4.57;;;;;;;;;;5095035;28;20246;-69
2022/03/19 09:39:24;;;;;;;11.82;4.65;;;;;;;;;;5094073;28;20196;-69
2022/03/19 09:41:51;;;;;;;9.48;4.25;;;;;;;;;;5094741;28;20290;-69
2022/03/19 09:44:19;;;;;;;14.73;4.90;;;;;;;;;;5094784;28;20311;-69
2022/03/19 09:46:48;;;;;;;9.07;4.22;;;;;;;;;;5094892;28;20201;-69
2022/03/19 09:49:15;;;;;;;5.63;3.83;;;;;;;;;;5094149;28;20197;-69
2022/03/19 09:51:44;;;;;;;7.55;4.93;;;;;;;;;;5094546;28;20580;-69
2022/03/19 09:54:11;;;;;;;5.68;4.05;;;;;;;;;;5094554;28;20202;-69
2022/03/19 09:56:39;;;;;;;9.00;4.00;;;;;;;;;;5094859;28;20550;-69
2022/03/19 09:59:06;;;;;;;7.32;4.10;;;;;;;;;;5093570;28;20200;-69
2022/03/19 10:01:33;;;;;;;6.13;3.55;;;;;;;;;;5095100;28;20232;-69
2022/03/19 10:04:07;;;;;;;9.43;3.22;;;;;;;;;;5094454;28;20288;-69
2022/03/19 10:09:20;;;;;;;8.63;4.15;;;;;;;;;;5094100;28;20183;-69
2022/03/19 10:11:50;;;;;;;10.07;4.13;;;;;;;;;;5094517;28;20209;-69
2022/03/19 10:14:24;;;;;;;5.25;3.65;;;;;;;;;;5094119;28;20193;-68
2022/03/19 10:16:52;;;;;;;5.70;2.97;;;;;;;;;;5094599;28;20292;-68
2022/03/19 10:19:20;;;;;;;5.93;3.20;;;;;;;;;;5093647;28;20218;-68
2022/03/19 10:21:48;;;;;;;4.88;2.53;;;;;;;;;;5093683;28;20207;-68
2022/03/19 10:24:22;;;;;;;13.15;3.10;;;;;;;;;;5093647;28;20581;-68
2022/03/19 10:26:50;;;;;;;6.43;2.47;;;;;;;;;;5094440;28;20197;-69
2022/03/19 10:29:22;;;;;;;6.65;3.25;;;;;;;;;;5093829;28;20199;-69
2022/03/19 10:31:50;;;;;;;5.95;2.70;;;;;;;;;;5093934;28;20182;-69
2022/03/19 10:34:17;;;;;;;4.45;3.00;;;;;;;;;;5092879;28;20646;-69
2022/03/19 10:36:47;;;;;;;5.35;2.72;;;;;;;;;;5093526;28;20284;-69
2022/03/19 10:39:15;;;;;;;5.63;2.85;;;;;;;;;;5092925;28;20731;-69
2022/03/19 10:41:43;;;;;;;3.85;3.17;;;;;;;;;;5093755;28;20224;-69
2022/03/19 10:44:11;;;;;;;5.63;2.55;;;;;;;;;;5093599;28;20220;-69
2022/03/19 10:46:38;;;;;;;6.13;2.70;;;;;;;;;;5093341;28;20231;-69
2022/03/19 10:49:12;;;;;;;5.78;3.20;;;;;;;;;;5092879;28;20197;-69
2022/03/19 10:51:40;;;;;;;7.43;3.30;;;;;;;;;;5094096;28;20542;-69
2022/03/19 10:54:11;;;;;;;8.32;3.38;;;;;;;;;;5093635;28;20251;-69
2022/03/19 10:56:38;;;;;;;7.47;3.13;;;;;;;;;;5093959;28;20623;-69
2022/03/19 10:59:05;;;;;;;4.75;2.95;;;;;;;;;;5092834;28;20197;-69
2022/03/19 11:01:36;;;;;;;6.47;3.80;;;;;;;;;;5093476;28;20293;-69
2022/03/19 11:04:04;;;;;;;10.82;6.88;;;;;;;;;;5093312;28;20208;-69
2022/03/19 11:06:32;;;;;;;4.32;3.40;;;;;;;;;;5093450;28;20223;-69
2022/03/19 11:09:01;;;;;;;6.75;3.40;;;;;;;;;;5093624;28;20279;-70
2022/03/19 11:11:33;;;;;;;4.72;2.60;;;;;;;;;;5093347;28;20297;-69
2022/03/19 11:14:03;;;;;;;5.20;2.83;;;;;;;;;;5093283;28;20188;-69
2022/03/19 11:16:32;;;;;;;2.88;2.58;;;;;;;;;;5093049;28;20635;-69
2022/03/19 11:19:00;;;;;;;2.40;2.30;;;;;;;;;;5092421;28;20196;-69
2022/03/19 11:21:28;;;;;;;3.28;2.70;;;;;;;;;;5093011;28;20238;-69
2022/03/19 11:23:57;;;;;;;5.68;2.60;;;;;;;;;;5093199;28;20240;-69
2022/03/19 11:26:25;;;;;;;7.47;2.47;;;;;;;;;;5093229;28;20309;-69
2022/03/19 11:28:54;;;;;;;4.15;2.38;;;;;;;;;;5093666;28;20252;-69
2022/03/19 11:31:24;;;;;;;2.63;2.38;;;;;;;;;;5093219;28;20647;-70
2022/03/19 11:33:52;;;;;;;4.57;2.28;;;;;;;;;;5093179;28;20227;-69
2022/03/19 11:36:19;;;;;;;4.40;2.45;;;;;;;;;;5093205;28;20208;-69
2022/03/19 11:38:51;;;;;;;3.03;2.70;;;;;;;;;;5092723;28;20202;-69
2022/03/19 11:41:23;;;;;;;9.23;4.82;;;;;;;;;;5092802;28;20217;-69
2022/03/19 11:43:51;;;;;;;5.18;2.83;;;;;;;;;;5092945;28;20280;-69
2022/03/19 11:46:19;;;;;;;7.05;3.10;;;;;;;;;;5096382;28;20712;-70
2022/03/19 11:48:48;;;;;;;9.65;2.85;;;;;;;;;;5096815;28;20231;-71
2022/03/19 11:51:17;;;;;;;4.18;2.50;;;;;;;;;;5097141;28;20217;-70
2022/03/19 11:53:55;;;;;;;3.03;2.72;;;;;;;;;;5096558;28;20196;-70
2022/03/19 11:56:22;;;;;;;4.60;2.80;;;;;;;;;;5096903;28;20551;-70
2022/03/19 11:58:50;;;;;;;6.05;2.30;;;;;;;;;;5096492;28;20232;-70
2022/03/19 12:01:22;;;;;;;4.30;2.33;;;;;;;;;;5096810;28;20232;-70
2022/03/19 12:04:16;;;;;;;6.10;3.67;;;;;;;;;;5096826;28;20204;-70
2022/03/19 12:06:54;;;;;;;3.50;2.40;;;;;;;;;;5060231;28;20319;-68
2022/03/19 12:09:32;;;;;;;4.97;3.20;;;;;;;;;;5096291;28;20430;-69
2022/03/19 12:12:09;;;;;;;4.35;2.25;;;;;;;;;;5097019;28;20246;-68
2022/03/19 12:14:36;;;;;;;4.00;2.97;;;;;;;;;;5096468;28;20195;-68
2022/03/19 12:17:17;;;;;;;5.53;5.00;;;;;;;;;;5096741;28;20201;-68
2022/03/19 12:19:54;;;;;;;9.75;2.80;;;;;;;;;;5096576;28;20443;-68
2022/03/19 12:22:34;;;;;;;6.30;2.67;;;;;;;;;;5096428;28;20193;-68
2022/03/19 12:25:13;;;;;;;3.03;2.20;;;;;;;;;;5096096;28;20430;-71
2022/03/19 12:27:40;;;;;;;2.88;2.40;;;;;;;;;;5096263;28;20266;-68
2022/03/19 12:30:08;;;;;;;2.55;2.17;;;;;;;;;;5095908;28;20193;-68
2022/03/19 12:32:54;;;;;;;4.20;3.07;;;;;;;;;;5096554;28;20550;-68
2022/03/19 12:35:21;;;;;;;7.72;3.40;;;;;;;;;;5095682;28;20493;-68
2022/03/19 12:37:51;;;;;;;10.10;2.50;;;;;;;;;;5095963;28;20209;-68
2022/03/19 12:40:20;;;;;;;3.38;2.25;;;;;;;;;;5095993;28;20193;-68
2022/03/19 12:42:51;;;;;;;2.83;2.50;;;;;;;;;;5095998;28;20191;-69
2022/03/19 12:45:18;;;;;;;3.80;2.67;;;;;;;;;;5095518;28;20209;-69
2022/03/19 12:47:51;;;;;;;3.92;2.33;;;;;;;;;;5095705;28;20443;-68
2022/03/19 12:50:18;;;;;;;4.45;2.35;;;;;;;;;;5095369;28;20264;-68
2022/03/19 12:52:46;;;;;;;6.30;2.20;;;;;;;;;;5095235;28;20201;-68
2022/03/19 12:55:21;;;;;;;3.30;2.53;;;;;;;;;;5095841;28;20447;-68
2022/03/19 12:57:56;;;;;;;5.30;2.93;;;;;;;;;;5095168;28;20431;-69
2022/03/19 13:00:23;;;;;;;7.32;2.70;;;;;;;;;;5095628;28;20428;-68
2022/03/19 13:02:51;;;;;;;3.77;2.40;;;;;;;;;;5095881;28;20193;-69
2022/03/19 13:05:18;;;;;;;5.35;3.20;;;;;;;;;;5095174;28;20446;-69
2022/03/19 13:08:00;;;;;;;4.33;2.60;;;;;;;;;;5095634;28;20539;-68
2022/03/19 13:10:29;;;;;;;4.93;2.80;;;;;;;;;;5095086;28;20459;-68
2022/03/19 13:13:06;;;;;;;6.10;3.20;;;;;;;;;;5094497;28;20244;-69
2022/03/19 13:15:33;;;;;;;6.40;3.17;;;;;;;;;;5095371;28;20236;-68
2022/03/19 13:18:00;;;;;;;6.30;2.83;;;;;;;;;;5094837;28;20291;-68
2022/03/19 13:20:28;;;;;;;6.95;3.33;;;;;;;;;;5095313;28;20443;-69
2022/03/19 13:23:00;;;;;;;3.70;2.20;;;;;;;;;;5095082;28;20228;-69
2022/03/19 13:25:30;;;;;;;6.50;2.50;;;;;;;;;;5095334;28;20459;-69
2022/03/19 13:28:02;;;;;;;7.78;2.45;;;;;;;;;;5095127;28;20440;-69
2022/03/19 13:30:30;;;;;;;6.50;3.10;;;;;;;;;;5095231;28;20276;-68
2022/03/19 13:32:58;;;;;;;8.50;2.67;;;;;;;;;;5094518;28;20445;-68
2022/03/19 13:35:36;;;;;;;5.43;2.50;;;;;;;;;;5094536;28;20439;-69
2022/03/19 13:38:09;;;;;;;2.90;2.50;;;;;;;;;;5095389;28;20189;-69
2022/03/19 13:40:37;;;;;;;2.90;2.13;;;;;;;;;;5095181;28;20616;-69
2022/03/19 13:43:05;;;;;;;3.40;2.17;;;;;;;;;;5094679;28;20200;-69
2022/03/19 13:45:32;;;;;;;4.47;2.20;;;;;;;;;;5094260;28;20287;-68
2022/03/19 13:48:03;;;;;;;6.20;2.93;;;;;;;;;;5094170;28;20526;-68
2022/03/19 13:50:30;;;;;;;3.97;2.28;;;;;;;;;;5093794;28;20582;-69
2022/03/19 13:52:59;;;;;;;3.30;1.93;;;;;;;;;;5093957;28;20219;-69
2022/03/19 13:55:38;;;;;;;3.50;1.80;;;;;;;;;;5094281;28;20446;-68
2022/03/19 13:58:06;;;;;;;4.00;1.90;;;;;;;;;;5094280;28;20459;-68
2022/03/19 14:00:37;;;;;;;3.20;2.20;;;;;;;;;;5094785;28;20807;-68
2022/03/19 14:03:05;;;;;;;14.23;2.17;;;;;;;;;;5094450;28;20456;-68
2022/03/19 14:05:33;;;;;;;7.13;2.83;;;;;;;;;;5094200;28;20520;-68
2022/03/19 14:08:03;;;;;;;5.80;2.17;;;;;;;;;;5092977;28;20432;-68
2022/03/19 14:10:32;;;;;;;2.70;2.30;;;;;;;;;;5093832;28;20446;-68
2022/03/19 14:13:08;;;;;;;4.23;3.30;;;;;;;;;;5093526;28;20440;-68
2022/03/19 14:15:43;;;;;;;5.65;3.58;;;;;;;;;;5094631;28;20518;-69
2022/03/19 14:18:10;;;;;;;6.17;4.10;;;;;;;;;;5093797;28;20193;-69
2022/03/19 14:20:38;;;;;;;5.40;3.05;;;;;;;;;;5093577;28;20538;-68
2022/03/19 14:23:05;;;;;;;9.83;2.63;;;;;;;;;;5093741;28;20193;-69
2022/03/19 14:25:35;;;;;;;4.90;2.97;;;;;;;;;;5094775;28;20496;-68
2022/03/19 14:28:12;;;;;;;7.73;3.33;;;;;;;;;;5093953;28;20442;-68
2022/03/19 14:30:41;;;;;;;5.50;2.67;;;;;;;;;;5093745;28;20422;-69
2022/03/19 14:33:08;;;;;;;6.20;2.53;;;;;;;;;;5093512;28;20441;-69
2022/03/19 14:35:46;;;;;;;6.80;2.70;;;;;;;;;;5093647;28;20454;-68
2022/03/19 14:38:16;;;;;;;6.30;2.03;;;;;;;;;;5093410;28;20447;-68
2022/03/19 14:40:43;;;;;;;9.23;2.40;;;;;;;;;;5093722;28;20567;-69
2022/03/19 14:43:14;;;;;;;2.63;2.23;;;;;;;;;;5093608;28;20528;-68
2022/03/19 14:45:43;;;;;;;7.13;2.80;;;;;;;;;;5093771;28;20531;-69
2022/03/19 14:48:10;;;;;;;5.33;2.47;;;;;;;;;;5093186;28;20443;-68
2022/03/19 14:50:38;;;;;;;10.53;2.13;;;;;;;;;;5093425;28;20502;-68
2022/03/19 14:53:05;;;;;;;3.57;2.07;;;;;;;;;;5092998;28;20443;-68
2022/03/19 14:55:33;;;;;;;3.97;2.03;;;;;;;;;;5093174;28;20473;-69
2022/03/19 14:58:00;;;;;;;10.07;2.20;;;;;;;;;;5093395;28;20518;-68